ENTK1: Smokey Hill River, Enterprise, KS

Data processed at Sun Sep 23 2018 23:02


All information presented herein is the property of the government of the United States of America and may be revised or deleted at any time without prior notice.
Dissemination of this information without the expressed written consent of the Public Affairs Office, Tulsa District U.S. Army Corps of Engineers is strictly prohibited.
These data are gathered electronically and, as presented, have not undergone any form of quality control. These data are not guaranteed to be valid or correct.
Go to home page.
Go to station list.
Go to home page.

Downstream station:


Previous Day
Next Day
Current Day
    
SHEF ID:       ENTK1     SMOKY HILL R AT ENTERPRISE, KS
STATION TYPE:  

               PRECIP     STAGE  RIV-FLOW  BAT-LOAD
                   in        ft       cfs      volt
              Ccp-Rev   Ccp-Rev   Ccp-Rev   Ccp-Rev
(US/Central)
09/23 00:00      0.00      7.76       743     12.77
09/23 01:00      0.00      7.77       746     12.71
09/23 02:00      0.00      7.72       727     12.71
09/23 03:00      0.00      7.71       723     12.71
09/23 04:00      0.00      7.69       715     12.65
09/23 05:00      0.00      7.68       711     12.65
09/23 06:00      0.00      7.68       711     12.60
09/23 07:00      0.00      7.63       692     12.60
09/23 08:00      0.00      7.63       692     12.60
09/23 09:00      0.00      7.61       685     12.71
09/23 10:00      0.00      7.61       685     13.42
09/23 11:00      0.00      7.59       677     13.36
09/23 12:00      0.00      7.58       673     13.42
09/23 13:00      0.00      7.59       677     13.36
09/23 14:00      0.00      7.57       669     13.36
09/23 15:00      0.00      7.57       669     13.30
09/23 16:00      0.00      7.54       658     13.30
09/23 17:00      0.00      7.56       666     13.24
09/23 18:00      0.00      7.54       658     13.18
09/23 19:00      0.00      7.51       647     12.95
09/23 20:00      0.00      7.52       651     12.89
09/23 21:00      0.00      7.51       647     12.89
09/23 22:00      0.00      7.49       639     12.83
09/23 23:00      ----      ----      ----      ----